CheckWX is a tool to help pilots better visualize weather data.  It is not intended as a substitute for an official pre-flight weather briefing.

12:08:10 UTC

KTEW METAR
Mason Jewett Field Airport
Mason, Michigan, USA
Current

31 mins ago

KTEW 261137Z AUTO 24003KT 10SM CLR 21/18 A3001 RMK AO2 T02080175
Observed
Jun-26 @ 11:37 UTC
Wind
  • 240° at 3 KTS
Visibility
10 SM
Flight Rules
VFR
Cloud Levels
  • Clear skies
Temperature
21°C / 70°F
Dewpoint
18°C / 64°F
Humidity
83%
Altimeter
30.01" Hg
Pressure
1016.22 hPa
Previous

49 mins ago

KTEW 261119Z AUTO 25003KT 10SM CLR 20/18 A3001 RMK AO2 T02040175
Observed
Jun-26 @ 11:19 UTC
Wind
  • 250° at 3 KTS
Visibility
10 SM
Flight Rules
VFR
Cloud Levels
  • Clear skies
Temperature
20°C / 68°F
Dewpoint
18°C / 64°F
Humidity
88%
Altimeter
30.01" Hg
Pressure
1016.22 hPa
Previous

1 hour ago

KTEW 261055Z AUTO 24003KT 10SM CLR 20/17 A3000 RMK AO2 T01970172
Observed
Jun-26 @ 10:55 UTC
Wind
  • 240° at 3 KTS
Visibility
10 SM
Flight Rules
VFR
Cloud Levels
  • Clear skies
Temperature
20°C / 68°F
Dewpoint
17°C / 63°F
Humidity
83%
Altimeter
30" Hg
Pressure
1015.92 hPa